Address 0x85341ddd649e38b227489af2f72989f71e144e1a

 
 
Txn Hash
Block
From
To
Value [Txn Fee]
0x8c19e3390ab468b031ee37c183295419dbd7c238002a9a17eff7f8fc6dbf325e78324092021-05-29 13:46:0459 days 9 hrs ago0x85341ddd649e38b227489af2f72989f71e144e1aOUT PancakeSwap: Auto CAKE Syrup Pool0 BNB0.000652825
0x6a353e3c90b05f740fc0ba936178a470ed3b9d5643acb56375b7659bcd4f122d78323962021-05-29 13:45:2559 days 9 hrs ago0x85341ddd649e38b227489af2f72989f71e144e1aOUT PancakeSwap: Main Staking Contract0 BNB0.000607185
0x39fb001848b0aa2b1dd04e11d87083f7bede14eb4101d2b4c9ccd7a68dc8258578323852021-05-29 13:44:5259 days 9 hrs ago0x85341ddd649e38b227489af2f72989f71e144e1aOUT PancakeSwap: Router v20.199455521102095 BNB0.000980645
0x51965b5e7e47447e51a4b2ed7bbcb629229d729e2abe4dde53bf83d59fcbba9f78323722021-05-29 13:44:1359 days 9 hrs ago0x85341ddd649e38b227489af2f72989f71e144e1aOUT PancakeSwap: Router v20.2 BNB0.0006717
0x9d0958797dec523fa38369dcc7c6ef0389ae185fbe7163cd13e6034d128b521b78236582021-05-29 6:26:3859 days 16 hrs ago0x85341ddd649e38b227489af2f72989f71e144e1aOUT PancakeSwap: Main Staking Contract0 BNB0.0005571
0x65b065d4e643a394077129bfd12581d12eb939551c01398c15de086a010883c878230652021-05-29 5:56:5159 days 17 hrs agoBinance: Hot Wallet 4 IN 0x85341ddd649e38b227489af2f72989f71e144e1a0.55 BNB0.00021
0x858bb3c6db51978be7f5200c856f9ade3c94434330697ac1c503c471674df03c72566462021-05-09 1:13:0779 days 22 hrs ago0x85341ddd649e38b227489af2f72989f71e144e1aOUT PancakeSwap: Auto CAKE Syrup Pool0 BNB0.00165652
0xcf35c8dd478d5f25b4f3c60b00c71a642d9908d4d9d811454070e915209e236872566332021-05-09 1:12:1579 days 22 hrs ago0x85341ddd649e38b227489af2f72989f71e144e1aOUT PancakeSwap: Main Staking Contract0 BNB0.00121449
0xf94a77b97179dde8ceb04762c916267923c24fcfbf00f2c928e3baf2d7eda10172566222021-05-09 1:11:3379 days 22 hrs ago0x85341ddd649e38b227489af2f72989f71e144e1aOUT PancakeSwap: Main Staking Contract0 BNB0.00121449
0x8925399ad1bb25e73ae3344a79d2fb11a959e2d4ff56d80edac4423d6468608f72566132021-05-09 1:11:0179 days 22 hrs ago0x85341ddd649e38b227489af2f72989f71e144e1aOUT PancakeSwap: Main Staking Contract0 BNB0.00136449
0xfcf4171a04179057093aaf6d22dd45e59514b1660b915d59ea2f2df19c2a6a0172566052021-05-09 1:10:3379 days 22 hrs ago0x85341ddd649e38b227489af2f72989f71e144e1aOUT PancakeSwap: Router v20.149609096306464 BNB0.00180952
0x5d1a4594da4de52b38503627375caf385894d9611b5fb81ef1d09d477c8ef6b772566012021-05-09 1:10:1279 days 22 hrs ago0x85341ddd649e38b227489af2f72989f71e144e1aOUT PancakeSwap: Router v20.149626144082893 BNB0.00180544
0x97e1ca6d07d10e5dae70e4e71ae754c04d40d4fe4933202d8107394f97d270bf72565952021-05-09 1:09:4979 days 22 hrs ago0x85341ddd649e38b227489af2f72989f71e144e1aOUT PancakeSwap: Router v20.149626863439467 BNB0.00180109
0xdae6e3f5feeea3b0359447fe6840e202124d8c5c635512a1aa4920e5adcbb08a72565722021-05-09 1:08:2279 days 22 hrs ago0x85341ddd649e38b227489af2f72989f71e144e1aOUT PancakeSwap: Router v20.15 BNB0.00134439
0x7851ea85d900e4d56ac6df0d64bdf0439114c8c516b3e715afd28dd758be5f6372565722021-05-09 1:08:2279 days 22 hrs ago0x85341ddd649e38b227489af2f72989f71e144e1aOUT PancakeSwap: Router v20.15 BNB0.00135067
0x8f290416735f09d0a3b1c4af4b50584a1f9aa92520f8c430131b3a716326bfdb72565612021-05-09 1:07:3479 days 22 hrs ago0x85341ddd649e38b227489af2f72989f71e144e1aOUT PancakeSwap: Router v20.15 BNB0.00134585
0x4ca042039dbfbc5c585404e49ce5dccd89335dacd7bd0ca838e5f5db10c5462872527962021-05-08 21:53:3680 days 1 hr agoBinance: Hot Wallet 2 IN 0x85341ddd649e38b227489af2f72989f71e144e1a0.88636036 BNB0.000126
0xbd1545ed919a7badf396cdbd89c1621076f922c628969b00fd8f98c9d8a6cd5c71083652021-05-03 18:51:0785 days 4 hrs ago0x85341ddd649e38b227489af2f72989f71e144e1aOUT PancakeSwap: Auto CAKE Syrup Pool0 BNB0.00039443
0xfc8a2960703710a6e5f4ef2e04f5c49ab0b1f02f35086c01deb297c6efd69c7a70180802021-04-30 14:40:4388 days 8 hrs ago0x85341ddd649e38b227489af2f72989f71e144e1aOUT PancakeSwap: Auto CAKE Syrup Pool0 BNB0.001006825
0x0fefff513b6c72345354288a721fe2baa67b439827d7b575318e095c774b646370180752021-04-30 14:40:2888 days 8 hrs ago0x85341ddd649e38b227489af2f72989f71e144e1aOUT PancakeSwap: CAKE Token0 BNB0.00022209
0x016893c2e0366b42a18d17b856aacddd5e6bd13ec7ba4b7ee514139a73e2ae5e70180662021-04-30 14:40:0188 days 8 hrs ago0x85341ddd649e38b227489af2f72989f71e144e1aOUT PancakeSwap: Main Staking Contract0 BNB0.0002723
0x19c02dbe253d786c1cb37ec06e4af5a1a0b7024d4dc70c095772e4617c0dedd570180592021-04-30 14:39:4088 days 8 hrs ago0x85341ddd649e38b227489af2f72989f71e144e1aOUT PancakeSwap: Main Staking Contract0 BNB0.00053814
0x54d6e5d161b9a5197c232ac9822ef4a271363474fa1fc0524a7c3e6e0c1e40b268520132021-04-24 19:14:0794 days 3 hrs ago0x85341ddd649e38b227489af2f72989f71e144e1aOUT PancakeSwap: Main Staking Contract0 BNB0.000641985
0xc1036306d7ffe64b5520a258896de0e863bf8ed87ee191af37bf82c91b59a6ad68520092021-04-24 19:13:5594 days 3 hrs ago0x85341ddd649e38b227489af2f72989f71e144e1aOUT 0xa9986fcbdb23c2e8b11ab40102990a08f8e58f060 BNB0.00022221
0xb127a0c60a3f1b989c32a4eba57d060dfb34a2400763217802acafa3cd13256468520012021-04-24 19:13:3194 days 4 hrs ago0x85341ddd649e38b227489af2f72989f71e144e1aOUT PancakeSwap: Router v20.134677765586119 BNB0.00090272
[ Download CSV Export 
Latest 12 internal transactions
Parent Txn Hash Block From To Value
0xcd4be76ad3367eb0409fe8467d4d18ff1d02de78a49adafde04323ebf7a2433268463502021-04-24 14:29:0094 days 8 hrs ago PancakeSwap: Router0x85341ddd649e38b227489af2f72989f71e144e1a0.500888601386461355 BNB
0xa38eaff8c845b12abb5c53e51bf6a2e8998bfeca6881e59d676b3dc259dc07ef68463412021-04-24 14:28:3394 days 8 hrs ago PancakeSwap: Router0x85341ddd649e38b227489af2f72989f71e144e1a0.265961921694195447 BNB
0x45908c7df450765b4796b98541bd5c0cd7c6133861a5b26c0f79af246f5ba8a368463082021-04-24 14:26:5494 days 8 hrs ago PancakeSwap: Router0x85341ddd649e38b227489af2f72989f71e144e1a0.21196935955027641 BNB
0x96ac7ceef9c7cc058de48cd9d628c90699f5427356f1981f58d0da779ffccfad68462942021-04-24 14:26:1294 days 8 hrs ago PancakeSwap: Router0x85341ddd649e38b227489af2f72989f71e144e1a0.454763775401664006 BNB
0x3d2e6da2fc35441c2151aba4e81bd2e202a520d4ed0ae5731f861f1a4bffdf4f68346082021-04-24 4:40:5294 days 18 hrs ago PancakeSwap: Router v20x85341ddd649e38b227489af2f72989f71e144e1a0.000271528053554515 BNB
0x32844711bbee5c83e54772df3b298e78255280cf3ad00889e72fe6517f2f5e0b68345892021-04-24 4:39:5594 days 18 hrs ago PancakeSwap: Router0x85341ddd649e38b227489af2f72989f71e144e1a0.806622305371226413 BNB
0x677306db8a8ab8fe5c0d0a204c93278355fc6bfe324304726d862844a3722b9c68201132021-04-23 16:34:2695 days 6 hrs ago BSC: Token Hub0x85341ddd649e38b227489af2f72989f71e144e1a0.5452 BNB
0x08310428c7e3a44f27ec4230de105462c9b08bb447cefb29b7a4435876d344fb65479082021-04-14 3:43:25104 days 19 hrs ago PancakeSwap: Router0x85341ddd649e38b227489af2f72989f71e144e1a0.002714920397194691 BNB
0x3e3476fea2333f7907f46b068dfa5118af5bb343d09d1fa27fed57e9d1a398b365478582021-04-14 3:40:55104 days 19 hrs ago PancakeSwap: Router0x85341ddd649e38b227489af2f72989f71e144e1a0.000233882228447323 BNB
0x242228f4a76c2ecbf323517b138495cb481134dd258b113a86d3a1abedec884261709692021-03-31 21:35:00118 days 1 hr ago PancakeSwap: Router0x85341ddd649e38b227489af2f72989f71e144e1a0.000252829716348721 BNB
0x19b441b6a9b0f50026f4dd56dbd2441630662cc38d1d6a3a0ce99ffd02ff8fed61709242021-03-31 21:32:45118 days 1 hr ago PancakeSwap: Router0x85341ddd649e38b227489af2f72989f71e144e1a0.000400939680334274 BNB
0x6c6597529ed6687388897c1b6f4dbaf1fd6bbe955c67f26ee4297107938798a061687862021-03-31 19:45:51118 days 3 hrs ago PancakeSwap: Router0x85341ddd649e38b227489af2f72989f71e144e1a0.000002158457615816 BNB
[ Download CSV Export 
Loading

Contract Name:
0 BNB

Compiler Version
0

Optimization Enabled:
0 BNB

Other Settings:
-NA-
Block Transaction Gas Used Reward
Age Block Fee Address BC Fee Address Voting Power Jailed Incoming
Block Uncle Number Difficulty Gas Used Reward
Loading
Loading
Make sure to use the "Vote Down" button for any spammy posts, and the "Vote Up" for interesting conversations.